createdAt,value
2019-05-26T00:03:38.519Z,62.23
2019-05-26T00:09:03.907Z,62.45
2019-05-26T00:14:27.029Z,61.82
2019-05-26T00:19:51.137Z,61.34
2019-05-26T00:25:14.961Z,62.21
2019-05-26T00:30:39.254Z,62.26
2019-05-26T00:36:03.441Z,61.92
2019-05-26T00:41:26.774Z,62.33
2019-05-26T00:46:51.020Z,62.19
2019-05-26T00:52:14.501Z,62.36
2019-05-26T00:57:38.600Z,62.24
2019-05-26T01:03:02.706Z,62.49
2019-05-26T01:08:26.811Z,62.39
2019-05-26T01:13:50.956Z,62.33
2019-05-26T01:19:14.699Z,62.19
2019-05-26T01:24:38.790Z,61.29
2019-05-26T01:30:02.588Z,61.58
2019-05-26T01:35:27.304Z,61.72
2019-05-26T01:41:01.236Z,61.71
2019-05-26T01:46:25.351Z,61.82
2019-05-26T01:51:49.246Z,61.81
2019-05-26T01:57:13.244Z,61.70
2019-05-26T02:02:37.344Z,61.67
2019-05-26T02:08:01.433Z,61.54
2019-05-26T02:13:24.613Z,61.96
2019-05-26T02:18:48.409Z,61.81
2019-05-26T02:24:11.890Z,62.12
2019-05-26T02:29:35.386Z,62.11
2019-05-26T02:34:59.386Z,62.33
2019-05-26T02:40:25.237Z,62.48
2019-05-26T02:45:49.727Z,62.65
2019-05-26T02:51:14.388Z,62.85
2019-05-26T02:56:38.236Z,62.68
2019-05-26T03:02:04.580Z,63.26
2019-05-26T03:07:27.990Z,63.52
2019-05-26T03:12:54.531Z,63.96
2019-05-26T03:18:19.285Z,63.65
2019-05-26T03:23:45.064Z,63.50
2019-05-26T03:29:08.996Z,63.85
2019-05-26T03:34:33.095Z,63.97
2019-05-26T03:39:57.186Z,64.00
2019-05-26T03:45:26.516Z,63.45
2019-05-26T03:50:50.607Z,63.93
2019-05-26T03:56:14.719Z,63.55
2019-05-26T04:01:38.822Z,63.82
2019-05-26T04:07:02.926Z,63.71
2019-05-26T04:12:28.751Z,63.43
2019-05-26T04:17:52.654Z,63.73
2019-05-26T04:23:16.755Z,63.74
2019-05-26T04:28:40.935Z,63.60
2019-05-26T04:34:05.168Z,63.77
2019-05-26T04:39:29.263Z,63.94
2019-05-26T04:44:53.061Z,63.77
2019-05-26T04:50:16.874Z,63.85
2019-05-26T04:55:40.650Z,63.20
2019-05-26T05:01:04.444Z,62.90
2019-05-26T05:06:28.544Z,62.99
2019-05-26T05:11:51.022Z,62.96
2019-05-26T05:17:15.206Z,62.67
2019-05-26T05:22:39.304Z,62.57
2019-05-26T05:28:03.402Z,62.64
2019-05-26T05:33:27.101Z,62.68
2019-05-26T05:38:51.200Z,63.07
2019-05-26T05:44:15.329Z,62.64
2019-05-26T05:49:39.433Z,61.99
2019-05-26T05:55:02.885Z,61.54
2019-05-26T06:00:26.987Z,61.28
2019-05-26T06:05:51.089Z,60.75
2019-05-26T06:11:16.965Z,60.37
2019-05-26T06:16:42.362Z,59.51
2019-05-26T06:22:06.165Z,59.12
2019-05-26T06:27:29.883Z,58.73
2019-05-26T06:32:53.208Z,58.59
2019-05-26T06:38:17.333Z,58.92
2019-05-26T06:43:42.971Z,58.63
2019-05-26T06:49:09.220Z,58.32
2019-05-26T06:54:34.958Z,57.82
2019-05-26T06:59:58.962Z,56.92
2019-05-26T07:05:22.446Z,56.24
2019-05-26T07:10:46.248Z,56.87
2019-05-26T07:16:12.463Z,55.50
2019-05-26T07:21:38.437Z,55.24
2019-05-26T07:27:04.087Z,54.69
2019-05-26T07:32:28.826Z,53.32
2019-05-26T07:37:54.450Z,52.76
2019-05-26T07:43:20.091Z,51.82
2019-05-26T07:48:45.714Z,52.47
2019-05-26T07:54:24.533Z,52.62
2019-05-26T07:59:39.150Z,52.59
2019-05-26T08:05:04.784Z,52.77
2019-05-26T08:10:31.945Z,52.69
2019-05-26T08:15:56.829Z,52.14
2019-05-26T08:21:22.313Z,49.94
2019-05-26T08:26:47.945Z,50.10
2019-05-26T08:32:15.024Z,50.51
2019-05-26T08:37:40.740Z,50.53
2019-05-26T08:43:07.280Z,50.16
2019-05-26T08:48:32.921Z,50.83
2019-05-26T08:53:57.826Z,50.70
2019-05-26T08:59:23.267Z,50.37
2019-05-26T09:04:47.993Z,49.29
2019-05-26T09:10:14.265Z,49.01
2019-05-26T09:15:39.260Z,48.11
2019-05-26T09:21:03.979Z,48.41
2019-05-26T09:26:29.637Z,45.49
2019-05-26T09:31:55.362Z,45.34
2019-05-26T09:37:20.989Z,46.05
2019-05-26T09:42:46.688Z,45.06
2019-05-26T09:48:12.500Z,44.12
2019-05-26T09:53:38.213Z,45.04
2019-05-26T09:59:03.874Z,45.12
2019-05-26T10:04:29.183Z,45.35
2019-05-26T10:09:53.905Z,43.95
2019-05-26T10:15:20.448Z,44.09
2019-05-26T10:20:45.501Z,43.89
2019-05-26T10:26:10.828Z,43.80
2019-05-26T10:31:36.260Z,42.99
2019-05-26T10:37:01.896Z,43.66
2019-05-26T10:42:26.930Z,41.81
2019-05-26T10:47:52.557Z,41.90
2019-05-26T10:53:18.494Z,41.96
2019-05-26T10:58:44.141Z,41.65
2019-05-26T11:04:09.465Z,41.54
2019-05-26T11:09:35.102Z,41.36
2019-05-26T11:15:00.134Z,40.48
2019-05-26T11:20:26.376Z,40.93
2019-05-26T11:25:51.982Z,41.35
2019-05-26T11:31:17.519Z,42.04
2019-05-26T11:36:43.153Z,41.88
2019-05-26T11:42:13.400Z,42.07
2019-05-26T11:47:31.965Z,41.76
2019-05-26T11:52:56.381Z,41.58
2019-05-26T11:58:19.321Z,40.54
2019-05-26T12:03:42.739Z,39.97
2019-05-26T12:09:06.529Z,39.63
2019-05-26T12:14:34.660Z,39.04
2019-05-26T12:19:54.444Z,39.13
2019-05-26T12:25:21.195Z,39.60
2019-05-26T12:30:45.705Z,39.52
2019-05-26T12:36:11.340Z,40.75
2019-05-26T12:41:37.387Z,40.35
2019-05-26T12:47:00.772Z,40.29
2019-05-26T12:52:24.969Z,39.93
2019-05-26T12:57:48.966Z,40.36
2019-05-26T13:03:12.269Z,39.95
2019-05-26T13:08:36.595Z,39.77
2019-05-26T13:14:00.148Z,39.67
2019-05-26T13:19:23.801Z,40.04
2019-05-26T13:24:47.976Z,38.83
2019-05-26T13:30:16.689Z,37.65
2019-05-26T13:35:39.420Z,37.30
2019-05-26T13:41:03.403Z,36.32
2019-05-26T13:46:26.555Z,36.67
2019-05-26T13:51:50.727Z,36.04
2019-05-26T13:57:14.494Z,36.20
2019-05-26T14:02:37.545Z,35.62
2019-05-26T14:08:00.980Z,34.77
2019-05-26T14:13:26.019Z,33.86
2019-05-26T14:18:49.436Z,33.95
2019-05-26T14:24:13.955Z,35.73
2019-05-26T14:29:38.059Z,37.20
2019-05-26T14:35:02.825Z,37.52
2019-05-26T14:40:30.262Z,38.08
2019-05-26T14:45:54.667Z,38.60
2019-05-26T14:51:18.769Z,38.86
2019-05-26T14:56:42.567Z,38.65
2019-05-26T15:02:06.665Z,37.10
2019-05-26T15:07:29.529Z,36.88
2019-05-26T15:12:52.877Z,36.98
2019-05-26T15:18:16.191Z,37.62
2019-05-26T15:23:39.378Z,37.15
2019-05-26T15:29:03.480Z,36.95
2019-05-26T15:34:27.192Z,36.49
2019-05-26T15:39:51.688Z,37.46
2019-05-26T15:45:14.864Z,37.44
2019-05-26T15:50:37.962Z,37.14
2019-05-26T15:56:02.069Z,34.78
2019-05-26T16:01:26.139Z,33.91
2019-05-26T16:06:49.476Z,33.51
2019-05-26T16:12:13.106Z,32.46
2019-05-26T16:17:38.859Z,32.41
2019-05-26T16:23:02.097Z,34.30
2019-05-26T16:28:24.691Z,34.09
2019-05-26T16:33:48.588Z,35.18
2019-05-26T16:39:12.145Z,36.00
2019-05-26T16:44:36.224Z,36.76
2019-05-26T16:50:00.281Z,37.25
2019-05-26T16:55:24.384Z,37.82
2019-05-26T17:00:48.184Z,38.47
2019-05-26T17:06:11.356Z,38.71
2019-05-26T17:11:37.182Z,39.00
2019-05-26T17:17:14.240Z,38.67
2019-05-26T17:22:33.876Z,38.76
2019-05-26T17:28:01.740Z,38.32
2019-05-26T17:33:25.105Z,38.31
2019-05-26T17:38:48.967Z,38.64
2019-05-26T17:44:12.999Z,38.90
2019-05-26T17:49:36.400Z,38.93
2019-05-26T17:55:03.469Z,39.13
2019-05-26T18:00:30.288Z,39.38
2019-05-26T18:05:54.385Z,40.06
2019-05-26T18:11:17.767Z,40.32
2019-05-26T18:16:41.673Z,40.85
2019-05-26T18:22:05.155Z,40.89
2019-05-26T18:27:28.976Z,41.84
2019-05-26T18:32:50.845Z,41.84
2019-05-26T18:38:12.662Z,42.46
2019-05-26T18:43:37.524Z,42.52
2019-05-26T18:48:59.368Z,42.52
2019-05-26T18:54:21.118Z,42.61
2019-05-26T18:59:43.666Z,42.63
2019-05-26T19:05:05.450Z,42.93
2019-05-26T19:10:27.604Z,42.83
2019-05-26T19:15:51.123Z,43.23
2019-05-26T19:21:12.928Z,43.21
2019-05-26T19:26:40.779Z,43.36
2019-05-26T19:32:02.601Z,44.14
2019-05-26T19:37:24.523Z,44.42
2019-05-26T19:42:47.845Z,44.55
2019-05-26T19:48:09.793Z,44.46
2019-05-26T19:53:31.585Z,44.66
2019-05-26T19:59:01.759Z,44.76
2019-05-26T20:04:23.653Z,45.18
2019-05-26T20:09:45.521Z,45.89
2019-05-26T20:15:08.909Z,45.52
2019-05-26T20:20:31.094Z,45.96
2019-05-26T20:25:52.826Z,46.79
2019-05-26T20:31:14.572Z,46.92
2019-05-26T20:36:36.327Z,47.21
2019-05-26T20:41:58.042Z,47.59
2019-05-26T20:47:19.801Z,48.33
2019-05-26T20:52:42.353Z,48.29
2019-05-26T20:58:04.143Z,47.76
2019-05-26T21:03:25.858Z,48.43
2019-05-26T21:08:47.619Z,48.86
2019-05-26T21:14:09.508Z,48.76
2019-05-26T21:19:32.050Z,48.84
2019-05-26T21:24:53.808Z,50.04
2019-05-26T21:30:17.446Z,50.09
2019-05-26T21:35:39.261Z,49.77
2019-05-26T21:41:01.063Z,50.14
2019-05-26T21:46:23.130Z,50.49
2019-05-26T21:51:44.891Z,50.79
2019-05-26T21:57:06.648Z,50.81
2019-05-26T22:02:28.349Z,50.81
2019-05-26T22:07:50.032Z,51.07
2019-05-26T22:13:11.741Z,51.27
2019-05-26T22:18:33.483Z,51.57
2019-05-26T22:23:55.199Z,52.88
2019-05-26T22:29:16.994Z,52.64
2019-05-26T22:34:38.744Z,52.44
2019-05-26T22:40:00.467Z,52.85
2019-05-26T22:45:24.095Z,52.36
2019-05-26T22:50:45.795Z,52.47
2019-05-26T22:56:07.588Z,53.16
2019-05-26T23:01:29.757Z,52.72
2019-05-26T23:06:51.567Z,52.96
2019-05-26T23:12:13.382Z,53.15
2019-05-26T23:17:35.145Z,53.67
2019-05-26T23:22:56.851Z,53.92
2019-05-26T23:28:18.707Z,54.33
2019-05-26T23:33:40.435Z,54.49
2019-05-26T23:39:02.317Z,54.33
2019-05-26T23:44:24.045Z,53.94
2019-05-26T23:49:45.792Z,54.17
2019-05-26T23:55:07.513Z,54.35
